Time;durP1;ratioP1;P1;durP2;ratioP2;P2;SDS_P1;SDS_P2;PMS_P1;PMS_P2;Temp;Humidity;BMP_temperature;BMP_pressure;BME280_temperature;BME280_humidity;BME280_pressure;Samples;Min_cycle;Max_cycle;Signal;HPM_P1;HPM_P2
2021/03/07 00:00:22;;;;;;;12.23;6.10;;;;;;;-1.37;71.11;96858.03;1284459;23;20377;-71
2021/03/07 00:00:52;;;;;;;10.43;6.32;;;;;;;-1.37;72.48;96856.22;1284290;23;20554;-72
2021/03/07 00:01:23;;;;;;;12.50;7.60;;;;;;;-1.37;72.85;96860.66;1284552;23;20024;-71
2021/03/07 00:01:53;;;;;;;11.07;6.40;;;;;;;-1.39;71.56;96860.00;1284455;23;20370;-70
2021/03/07 00:02:24;;;;;;;13.37;6.67;;;;;;;-1.35;71.37;96854.22;1284545;23;20001;-71
2021/03/07 00:02:54;;;;;;;8.80;5.93;;;;;;;-1.32;71.78;96853.06;1284342;23;20005;-70
2021/03/07 00:03:25;;;;;;;10.27;6.33;;;;;;;-1.31;71.62;96847.66;1283999;23;20538;-70
2021/03/07 00:03:55;;;;;;;9.37;5.83;;;;;;;-1.27;71.15;96853.38;1284072;23;20112;-70
2021/03/07 00:04:25;;;;;;;10.80;6.30;;;;;;;-1.26;71.15;96846.31;1284122;23;19996;-70
2021/03/07 00:04:56;;;;;;;10.13;6.03;;;;;;;-1.28;71.36;96859.59;1284034;23;20031;-71
2021/03/07 00:05:26;;;;;;;11.60;6.43;;;;;;;-1.31;71.21;96855.53;1290155;23;20008;-70
2021/03/07 00:05:57;;;;;;;14.80;7.83;;;;;;;-1.34;72.81;96852.41;1284066;23;20004;-71
2021/03/07 00:06:27;;;;;;;11.07;7.23;;;;;;;-1.32;72.60;96853.88;1283991;23;20329;-70
2021/03/07 00:06:57;;;;;;;13.03;6.87;;;;;;;-1.38;72.75;96856.41;1284023;23;20422;-71
2021/03/07 00:07:28;;;;;;;19.40;8.17;;;;;;;-1.33;73.01;96854.06;1284045;23;20004;-71
2021/03/07 00:07:58;;;;;;;11.90;7.10;;;;;;;-1.39;73.37;96850.31;1283934;23;20046;-71
2021/03/07 00:08:36;;;;;;;12.63;6.47;;;;;;;-1.40;72.88;96848.69;1283910;23;20031;-71
2021/03/07 00:09:07;;;;;;;10.60;6.47;;;;;;;-1.37;72.55;96843.09;1277621;23;20016;-70
2021/03/07 00:09:37;;;;;;;12.90;7.33;;;;;;;-1.37;72.42;96852.78;1279458;23;20008;-71
2021/03/07 00:10:09;;;;;;;14.37;8.27;;;;;;;-1.40;74.20;96853.13;1284047;23;20078;-71
2021/03/07 00:10:40;;;;;;;13.57;8.55;;;;;;;-1.40;74.62;96840.00;1283915;23;19992;-71
2021/03/07 00:11:10;;;;;;;11.87;7.10;;;;;;;-1.42;72.46;96848.06;1284418;23;20410;-71
2021/03/07 00:11:41;;;;;;;17.43;8.50;;;;;;;-1.44;73.71;96850.00;1283970;23;20023;-71
2021/03/07 00:12:11;;;;;;;15.90;7.90;;;;;;;-1.43;73.42;96850.88;1283988;23;20003;-71
2021/03/07 00:12:42;;;;;;;12.97;8.23;;;;;;;-1.46;73.69;96848.56;1283966;23;20413;-71
2021/03/07 00:13:12;;;;;;;15.23;8.70;;;;;;;-1.48;73.25;96845.31;1283971;23;20314;-71
2021/03/07 00:13:42;;;;;;;15.30;8.93;;;;;;;-1.50;73.71;96847.28;1284309;23;20004;-71
2021/03/07 00:14:13;;;;;;;13.43;8.17;;;;;;;-1.52;73.84;96844.84;1284297;23;19996;-70
2021/03/07 00:14:43;;;;;;;12.77;7.73;;;;;;;-1.53;73.67;96852.88;1284334;23;19996;-70
2021/03/07 00:15:14;;;;;;;10.50;6.90;;;;;;;-1.51;73.30;96850.91;1283851;23;19999;-71
2021/03/07 00:15:45;;;;;;;12.77;6.90;;;;;;;-1.47;72.24;96846.94;1283982;23;19996;-70
2021/03/07 00:16:15;;;;;;;11.47;6.93;;;;;;;-1.43;72.54;96838.56;1284060;23;20215;-70
2021/03/07 00:16:45;;;;;;;9.47;6.17;;;;;;;-1.40;72.39;96842.63;1284078;23;19996;-71
2021/03/07 00:17:16;;;;;;;10.73;6.80;;;;;;;-1.40;72.64;96845.25;1284165;23;20004;-69
2021/03/07 00:17:47;;;;;;;9.80;6.17;;;;;;;-1.36;71.93;96843.91;1284235;23;20005;-70
2021/03/07 00:18:17;;;;;;;12.13;6.55;;;;;;;-1.34;71.95;96836.69;1284434;23;20050;-70
2021/03/07 00:18:48;;;;;;;10.00;6.70;;;;;;;-1.32;71.38;96840.78;1284532;23;20019;-70
2021/03/07 00:19:18;;;;;;;10.97;6.67;;;;;;;-1.31;71.49;96841.59;1284301;23;20000;-70
2021/03/07 00:19:49;;;;;;;13.00;7.67;;;;;;;-1.34;71.74;96841.94;1284412;23;20047;-71
2021/03/07 00:20:21;;;;;;;12.33;7.77;;;;;;;-1.34;72.38;96839.31;1284518;23;19997;-70
2021/03/07 00:20:51;;;;;;;14.70;7.30;;;;;;;-1.35;72.98;96845.53;1284407;23;19993;-71
2021/03/07 00:21:22;;;;;;;18.20;8.90;;;;;;;-1.40;73.76;96837.38;1284212;23;20314;-71
2021/03/07 00:21:52;;;;;;;18.73;8.57;;;;;;;-1.44;74.18;96836.09;1284353;23;20406;-70
2021/03/07 00:22:23;;;;;;;16.93;9.10;;;;;;;-1.45;74.63;96844.97;1284415;23;19997;-71
2021/03/07 00:22:53;;;;;;;13.13;8.57;;;;;;;-1.48;74.13;96840.88;1284292;23;19997;-71
2021/03/07 00:23:23;;;;;;;16.17;9.77;;;;;;;-1.49;74.78;96834.00;1284324;23;20319;-71
2021/03/07 00:23:54;;;;;;;19.87;8.80;;;;;;;-1.50;75.21;96839.41;1284372;23;19993;-70
2021/03/07 00:24:24;;;;;;;12.97;8.10;;;;;;;-1.49;74.38;96843.66;1284009;23;20410;-71
2021/03/07 00:24:55;;;;;;;15.77;7.90;;;;;;;-1.54;73.94;96840.75;1283970;23;19992;-71
2021/03/07 00:25:26;;;;;;;15.18;8.65;;;;;;;-1.58;74.68;96841.09;1277786;23;20043;-71
2021/03/07 00:25:56;;;;;;;21.77;9.87;;;;;;;-1.55;75.84;96844.38;1277929;23;20407;-71
2021/03/07 00:26:26;;;;;;;15.50;9.63;;;;;;;-1.58;75.55;96837.69;1284124;23;20009;-71
2021/03/07 00:26:57;;;;;;;13.73;7.53;;;;;;;-1.53;74.41;96837.16;1284089;23;19996;-71
2021/03/07 00:27:27;;;;;;;10.00;6.37;;;;;;;-1.53;72.57;96839.78;1284417;23;20502;-71
2021/03/07 00:27:58;;;;;;;10.70;6.10;;;;;;;-1.53;72.61;96840.59;1284412;23;20042;-70
2021/03/07 00:28:28;;;;;;;17.20;8.93;;;;;;;-1.53;73.94;96840.59;1284253;23;20004;-71
2021/03/07 00:28:59;;;;;;;15.57;8.53;;;;;;;-1.56;74.50;96848.78;1284381;23;19996;-71
2021/03/07 00:29:29;;;;;;;14.03;8.50;;;;;;;-1.55;74.16;96836.50;1284494;23;20009;-71
2021/03/07 00:29:59;;;;;;;16.33;9.93;;;;;;;-1.55;75.10;96839.13;1284220;23;20007;-71
2021/03/07 00:30:30;;;;;;;15.87;9.03;;;;;;;-1.59;75.27;96836.84;1284284;23;20007;-71
2021/03/07 00:31:00;;;;;;;19.37;8.63;;;;;;;-1.59;75.33;96839.47;1290294;23;20003;-71
2021/03/07 00:31:31;;;;;;;19.17;10.30;;;;;;;-1.59;75.61;96841.25;1290260;23;20000;-71
2021/03/07 00:32:01;;;;;;;12.80;8.33;;;;;;;-1.62;75.95;96837.19;1290239;23;20051;-71
2021/03/07 00:32:32;;;;;;;13.90;7.10;;;;;;;-1.61;74.66;96838.81;1290206;23;20007;-71
2021/03/07 00:33:02;;;;;;;10.60;6.53;;;;;;;-1.58;72.91;96843.72;1284359;23;19992;-71
2021/03/07 00:33:33;;;;;;;10.63;6.37;;;;;;;-1.57;72.92;96839.31;1284362;23;20001;-71
2021/03/07 00:34:03;;;;;;;10.17;6.07;;;;;;;-1.54;72.52;96844.19;1284354;23;20004;-71
2021/03/07 00:34:34;;;;;;;14.33;6.70;;;;;;;-1.51;72.31;96835.16;1284427;23;20115;-72
2021/03/07 00:35:05;;;;;;;11.37;6.07;;;;;;;-1.49;71.99;96838.41;1284362;23;20441;-71
2021/03/07 00:35:35;;;;;;;13.35;6.55;;;;;;;-1.49;71.71;96844.47;1284320;23;20418;-71
2021/03/07 00:36:05;;;;;;;10.00;5.70;;;;;;;-1.48;71.15;96843.50;1284415;23;20005;-70
2021/03/07 00:36:36;;;;;;;10.60;6.20;;;;;;;-1.44;70.68;96844.78;1284364;23;20004;-70
2021/03/07 00:37:06;;;;;;;9.83;6.10;;;;;;;-1.43;71.07;96840.38;1284303;23;20001;-71
2021/03/07 00:37:37;;;;;;;10.77;6.17;;;;;;;-1.50;70.91;96844.66;1284308;23;19996;-71
2021/03/07 00:38:08;;;;;;;11.70;6.17;;;;;;;-1.50;70.93;96840.22;1284066;23;20067;-70
2021/03/07 00:38:38;;;;;;;11.37;7.13;;;;;;;-1.47;71.35;96846.94;1284455;23;20220;-69
2021/03/07 00:39:08;;;;;;;10.43;6.03;;;;;;;-1.49;71.07;96838.41;1284389;23;19997;-70
2021/03/07 00:39:39;;;;;;;10.93;6.33;;;;;;;-1.47;71.57;96842.50;1284204;23;20398;-70
2021/03/07 00:40:10;;;;;;;10.57;6.27;;;;;;;-1.47;71.15;96841.69;1283859;23;20110;-70
2021/03/07 00:40:40;;;;;;;9.65;6.03;;;;;;;-1.47;71.70;96845.13;1284030;23;20370;-70
2021/03/07 00:41:11;;;;;;;11.07;6.37;;;;;;;-1.51;71.85;96841.22;1284001;23;19993;-71
2021/03/07 00:41:42;;;;;;;11.03;7.30;;;;;;;-1.48;72.77;96840.06;1284650;23;20072;-71
2021/03/07 00:42:12;;;;;;;10.57;6.88;;;;;;;-1.51;73.17;96840.41;1284428;23;20642;-71
2021/03/07 00:42:44;;;;;;;16.40;8.47;;;;;;;-1.54;74.45;96843.38;1284835;23;20000;-71
2021/03/07 00:43:14;;;;;;;18.83;9.55;;;;;;;-1.59;74.80;96842.09;1284858;23;19993;-72
2021/03/07 00:43:45;;;;;;;16.80;9.07;;;;;;;-1.59;75.43;96833.41;1284855;23;19997;-71
2021/03/07 00:44:15;;;;;;;17.57;8.67;;;;;;;-1.60;75.41;96835.19;1285336;23;19992;-71
2021/03/07 00:44:46;;;;;;;15.03;8.47;;;;;;;-1.60;75.40;96842.25;1285387;23;20004;-71
2021/03/07 00:45:17;;;;;;;16.17;9.30;;;;;;;-1.63;75.37;96842.63;1285234;23;19992;-69
2021/03/07 00:45:47;;;;;;;22.08;10.70;;;;;;;-1.71;76.43;96843.47;1285412;23;20020;-70
2021/03/07 00:46:18;;;;;;;17.17;10.30;;;;;;;-1.74;77.07;96840.38;1285170;23;20445;-67
2021/03/07 00:46:48;;;;;;;20.27;10.87;;;;;;;-1.76;76.94;96839.72;1285340;23;20310;-68
2021/03/07 00:47:19;;;;;;;19.50;10.30;;;;;;;-1.79;77.59;96840.91;1285182;23;20429;-68
2021/03/07 00:47:49;;;;;;;19.97;11.13;;;;;;;-1.81;77.65;96842.88;1285356;23;20472;-67
2021/03/07 00:48:19;;;;;;;18.57;11.60;;;;;;;-1.86;77.91;96837.31;1285212;23;20407;-67
2021/03/07 00:48:50;;;;;;;18.73;10.93;;;;;;;-1.89;77.99;96838.50;1285382;23;19997;-67
2021/03/07 00:49:21;;;;;;;19.77;10.60;;;;;;;-1.93;77.62;96831.94;1285316;23;19997;-67
2021/03/07 00:49:51;;;;;;;21.48;11.40;;;;;;;-1.92;77.63;96838.00;1285350;23;19992;-67
2021/03/07 00:50:23;;;;;;;19.73;10.97;;;;;;;-1.95;77.80;96836.53;1285024;23;20000;-67
2021/03/07 00:50:53;;;;;;;19.88;9.80;;;;;;;-1.93;78.27;96833.75;1285477;23;20508;-67
2021/03/07 00:51:24;;;;;;;16.83;10.77;;;;;;;-1.94;77.56;96832.13;1285347;23;20055;-67
2021/03/07 00:51:54;;;;;;;18.37;8.70;;;;;;;-1.92;77.28;96832.78;1285410;23;20046;-66
2021/03/07 00:52:25;;;;;;;15.80;8.77;;;;;;;-1.94;76.63;96830.31;1285326;23;20071;-68
2021/03/07 00:52:55;;;;;;;14.13;8.00;;;;;;;-1.92;76.62;96827.53;1285412;23;20020;-68
2021/03/07 00:53:26;;;;;;;12.03;7.63;;;;;;;-1.89;76.06;96829.81;1285323;23;20326;-67
2021/03/07 00:53:56;;;;;;;13.90;7.60;;;;;;;-1.87;76.01;96835.69;1291221;23;19999;-73
2021/03/07 00:54:26;;;;;;;14.97;8.50;;;;;;;-1.83;76.57;96837.00;1291286;23;20385;-68
2021/03/07 00:54:57;;;;;;;18.13;8.30;;;;;;;-1.84;76.65;96833.56;1291346;23;20465;-67
2021/03/07 00:55:27;;;;;;;15.73;9.73;;;;;;;-1.81;77.09;96834.19;1291010;23;20004;-68
2021/03/07 00:55:58;;;;;;;11.53;6.33;;;;;;;-1.74;74.87;96833.34;1285332;23;20004;-67
2021/03/07 00:56:28;;;;;;;12.50;6.47;;;;;;;-1.74;74.41;96835.97;1285317;23;20012;-66
2021/03/07 00:56:59;;;;;;;11.57;6.57;;;;;;;-1.74;73.43;96827.25;1285377;23;20012;-66
2021/03/07 00:57:29;;;;;;;12.43;6.70;;;;;;;-1.69;73.68;96833.66;1285156;23;20011;-67
2021/03/07 00:57:59;;;;;;;15.93;7.10;;;;;;;-1.65;72.94;96831.47;1285249;23;20028;-67
2021/03/07 00:58:30;;;;;;;21.03;10.53;;;;;;;-1.77;76.29;96831.06;1285299;23;20009;-67
2021/03/07 00:59:00;;;;;;;14.70;9.77;;;;;;;-1.78;76.49;96833.84;1285383;23;20000;-68
2021/03/07 00:59:31;;;;;;;17.43;10.43;;;;;;;-1.84;77.22;96828.31;1285278;23;20004;-68
2021/03/07 01:00:06;;;;;;;18.03;10.77;;;;;;;-1.88;77.47;96828.81;1285222;23;20004;-68
2021/03/07 01:00:36;;;;;;;22.35;11.88;;;;;;;-1.93;77.46;96820.66;1285350;23;20039;-68
2021/03/07 01:01:06;;;;;;;16.93;9.87;;;;;;;-1.94;77.11;96821.66;1285212;23;20001;-68
2021/03/07 01:01:37;;;;;;;15.67;9.53;;;;;;;-1.96;77.24;96828.84;1285194;23;20064;-68
2021/03/07 01:02:08;;;;;;;19.70;10.35;;;;;;;-1.98;77.13;96825.59;1285085;23;20389;-68
2021/03/07 01:02:38;;;;;;;14.67;9.50;;;;;;;-1.98;77.13;96830.84;1285033;23;19996;-68
2021/03/07 01:03:08;;;;;;;17.73;10.17;;;;;;;-2.02;77.73;96822.50;1285208;23;20027;-68
2021/03/07 01:03:39;;;;;;;19.73;10.03;;;;;;;-2.05;78.18;96822.81;1285059;23;20008;-70
2021/03/07 01:04:09;;;;;;;18.90;9.50;;;;;;;-2.07;77.80;96824.81;1285192;23;20306;-68
2021/03/07 01:04:40;;;;;;;17.83;10.37;;;;;;;-2.10;78.03;96810.25;1285247;23;20150;-68
2021/03/07 01:05:11;;;;;;;17.67;10.00;;;;;;;-2.13;78.81;96825.50;1291174;23;20016;-68
2021/03/07 01:05:41;;;;;;;15.82;10.38;;;;;;;-2.16;78.53;96815.34;1291076;23;20023;-68
2021/03/07 01:06:12;;;;;;;15.73;9.97;;;;;;;-2.18;78.26;96826.00;1291261;23;20003;-68
2021/03/07 01:06:42;;;;;;;19.50;10.27;;;;;;;-2.19;78.09;96826.19;1291091;23;20050;-68
2021/03/07 01:07:12;;;;;;;20.20;10.00;;;;;;;-2.19;78.20;96828.78;1285372;23;20425;-68
2021/03/07 01:07:43;;;;;;;17.20;9.13;;;;;;;-2.19;77.97;96818.31;1284870;23;20418;-68
2021/03/07 01:08:13;;;;;;;19.33;9.70;;;;;;;-2.21;78.37;96828.13;1278996;23;19997;-68
2021/03/07 01:08:44;;;;;;;19.07;10.50;;;;;;;-2.22;78.11;96819.47;1278617;23;20098;-68
2021/03/07 01:09:14;;;;;;;21.67;10.23;;;;;;;-2.19;78.46;96821.75;1278897;23;20044;-68
2021/03/07 01:09:45;;;;;;;25.87;10.90;;;;;;;-2.19;79.16;96824.38;1285056;23;20043;-68
2021/03/07 01:10:17;;;;;;;21.23;10.13;;;;;;;-2.18;78.59;96822.56;1285462;23;19993;-68
2021/03/07 01:10:48;;;;;;;19.75;10.95;;;;;;;-2.19;78.76;96819.13;1285407;23;20001;-68
2021/03/07 01:11:18;;;;;;;20.60;10.17;;;;;;;-2.20;78.63;96827.97;1285455;23;19992;-67
2021/03/07 01:11:49;;;;;;;17.00;9.77;;;;;;;-2.21;78.57;96821.09;1285391;23;19997;-68
2021/03/07 01:12:19;;;;;;;17.20;9.20;;;;;;;-2.20;78.20;96817.50;1285537;23;20054;-68
2021/03/07 01:12:50;;;;;;;16.70;9.90;;;;;;;-2.20;78.02;96814.88;1285814;23;20527;-68
2021/03/07 01:13:20;;;;;;;17.50;10.33;;;;;;;-2.20;78.08;96817.50;1285672;23;20035;-68
2021/03/07 01:13:51;;;;;;;16.70;10.03;;;;;;;-2.19;78.22;96827.00;1286143;23;19993;-67
2021/03/07 01:14:21;;;;;;;15.83;9.83;;;;;;;-2.21;78.15;96821.09;1285708;23;20027;-67
2021/03/07 01:14:52;;;;;;;21.77;9.93;;;;;;;-2.23;78.30;96819.63;1285769;23;20000;-67
2021/03/07 01:15:27;;;;;;;14.80;9.60;;;;;;;-2.23;78.46;96827.50;1285716;23;19997;-67
2021/03/07 01:15:57;;;;;;;21.75;9.20;;;;;;;-2.23;78.23;96817.03;1285434;23;20016;-67
2021/03/07 01:16:28;;;;;;;14.47;9.00;;;;;;;-2.21;78.00;96815.03;1285309;23;20011;-67
2021/03/07 01:16:58;;;;;;;14.47;9.00;;;;;;;-2.19;78.12;96821.75;1285460;23;19992;-67
2021/03/07 01:17:29;;;;;;;19.63;10.17;;;;;;;-2.18;78.60;96819.94;1284621;23;19993;-67
2021/03/07 01:18:00;;;;;;;16.33;8.33;;;;;;;-2.17;77.02;96816.34;1285398;23;20334;-67
2021/03/07 01:18:30;;;;;;;13.77;8.20;;;;;;;-2.16;76.66;96810.91;1285386;23;20433;-67
2021/03/07 01:19:00;;;;;;;11.97;6.53;;;;;;;-2.11;75.20;96813.84;1285434;23;20411;-67
2021/03/07 01:19:35;;;;;;;11.53;7.33;;;;;;;-2.04;74.58;96805.31;1285215;23;19993;-68
2021/03/07 01:20:07;;;;;;;11.10;6.90;;;;;;;-2.04;74.50;96808.75;1285006;23;19993;-68
2021/03/07 01:20:39;;;;;;;12.75;7.00;;;;;;;-2.00;74.39;96807.41;1284943;23;20000;-67
2021/03/07 01:21:10;;;;;;;12.32;7.32;;;;;;;-2.01;74.24;96805.78;1285365;23;19989;-67
2021/03/07 01:21:40;;;;;;;11.37;7.50;;;;;;;-1.95;74.60;96806.91;1285219;23;19992;-67
2021/03/07 01:22:11;;;;;;;12.53;7.33;;;;;;;-1.90;74.61;96809.81;1284906;23;19993;-67
2021/03/07 01:22:41;;;;;;;13.83;8.00;;;;;;;-1.90;74.97;96810.63;1284989;23;19996;-67
2021/03/07 01:23:14;;;;;;;12.60;6.47;;;;;;;-1.87;74.56;96812.09;1285007;23;19997;-67
2021/03/07 01:23:44;;;;;;;10.50;6.43;;;;;;;-1.90;74.36;96802.78;1284977;23;20126;-67
2021/03/07 01:24:15;;;;;;;10.37;6.40;;;;;;;-1.89;74.71;96806.22;1285295;23;19992;-67
2021/03/07 01:24:45;;;;;;;11.53;6.87;;;;;;;-1.89;74.85;96811.47;1291217;23;20000;-67
2021/03/07 01:25:17;;;;;;;12.73;6.80;;;;;;;-1.90;74.62;96796.72;1284829;23;19996;-67
2021/03/07 01:25:48;;;;;;;15.30;8.50;;;;;;;-1.91;75.71;96797.72;1284954;23;20000;-68
2021/03/07 01:26:18;;;;;;;15.27;9.00;;;;;;;-1.97;76.27;96790.53;1285084;23;20068;-67
2021/03/07 01:26:49;;;;;;;15.07;9.37;;;;;;;-1.96;76.59;96800.84;1285029;23;20009;-67
2021/03/07 01:27:19;;;;;;;16.30;9.20;;;;;;;-1.97;76.70;96793.97;1285298;23;20381;-68
2021/03/07 01:27:50;;;;;;;14.80;8.90;;;;;;;-1.95;76.64;96794.63;1285318;23;20442;-67
2021/03/07 01:28:20;;;;;;;14.90;9.37;;;;;;;-1.95;76.98;96799.03;1285150;23;19993;-67
2021/03/07 01:28:50;;;;;;;14.63;8.43;;;;;;;-2.00;77.42;96801.34;1285084;23;20004;-66
2021/03/07 01:29:21;;;;;;;15.83;8.67;;;;;;;-2.01;77.62;96797.09;1285411;23;20031;-67
2021/03/07 01:29:51;;;;;;;14.00;8.50;;;;;;;-2.02;76.46;96796.28;1285388;23;20433;-67
2021/03/07 01:30:22;;;;;;;10.60;7.10;;;;;;;-1.94;75.61;96795.44;1285205;23;20016;-67
2021/03/07 01:30:52;;;;;;;10.70;6.87;;;;;;;-1.89;75.24;96801.00;1285344;23;20036;-66
2021/03/07 01:31:24;;;;;;;12.57;7.40;;;;;;;-1.90;74.73;96794.91;1285325;23;20223;-67
2021/03/07 01:31:54;;;;;;;13.93;7.27;;;;;;;-1.90;74.43;96794.91;1285290;23;20414;-67
2021/03/07 01:32:25;;;;;;;16.93;8.40;;;;;;;-1.94;76.03;96798.88;1285370;23;20001;-67
2021/03/07 01:32:56;;;;;;;19.70;8.82;;;;;;;-1.94;76.47;96796.28;1285322;23;20001;-67
2021/03/07 01:33:26;;;;;;;14.10;8.93;;;;;;;-1.97;76.46;96795.78;1285315;23;20008;-67
2021/03/07 01:33:57;;;;;;;13.97;8.40;;;;;;;-2.00;75.85;96796.94;1285337;23;19996;-67
2021/03/07 01:34:27;;;;;;;12.87;8.40;;;;;;;-2.00;76.70;96791.69;1285329;23;20031;-67
2021/03/07 01:34:57;;;;;;;12.20;7.77;;;;;;;-2.02;76.02;96798.91;1285439;23;20008;-67
2021/03/07 01:35:28;;;;;;;11.03;7.07;;;;;;;-1.98;75.76;96794.97;1285220;23;20012;-67
2021/03/07 01:36:02;;;;;;;10.87;6.73;;;;;;;-1.93;75.09;96797.06;1285210;23;20008;-67
2021/03/07 01:36:33;;;;;;;12.88;7.25;;;;;;;-1.95;75.40;96796.41;1285428;23;20015;-67
2021/03/07 01:37:03;;;;;;;10.07;6.67;;;;;;;-1.96;75.24;96789.56;1285254;23;20005;-68
2021/03/07 01:37:34;;;;;;;10.70;7.00;;;;;;;-1.98;74.62;96797.59;1285278;23;20084;-66
2021/03/07 01:38:04;;;;;;;10.90;7.50;;;;;;;-1.97;75.05;96793.16;1285316;23;20000;-67
2021/03/07 01:38:34;;;;;;;10.27;6.83;;;;;;;-1.93;74.26;96795.28;1285310;23;20015;-67
2021/03/07 01:39:05;;;;;;;12.40;6.47;;;;;;;-1.91;73.76;96792.47;1285369;23;20461;-67
2021/03/07 01:39:36;;;;;;;12.27;7.37;;;;;;;-1.86;73.50;96787.53;1285318;23;20430;-67
2021/03/07 01:40:11;;;;;;;11.50;6.60;;;;;;;-1.87;73.30;96791.97;1285284;23;20001;-67
2021/03/07 01:40:46;;;;;;;13.07;7.43;;;;;;;-1.89;74.08;96786.09;1285213;23;20012;-67
2021/03/07 01:41:16;;;;;;;10.90;7.25;;;;;;;-1.93;73.57;96781.34;1285312;23;19993;-66
2021/03/07 01:41:47;;;;;;;16.13;7.10;;;;;;;-1.92;74.09;96791.66;1285287;23;20004;-67
2021/03/07 01:42:17;;;;;;;13.33;6.70;;;;;;;-1.95;74.30;96785.94;1285278;23;19996;-67
2021/03/07 01:42:48;;;;;;;12.23;6.90;;;;;;;-1.93;74.83;96789.22;1285230;23;20435;-67
2021/03/07 01:43:20;;;;;;;13.35;7.35;;;;;;;-1.90;74.07;96778.38;1285370;23;20267;-67
2021/03/07 01:43:51;;;;;;;10.73;6.90;;;;;;;-1.88;73.58;96782.47;1285461;23;20001;-67
2021/03/07 01:44:21;;;;;;;11.17;7.17;;;;;;;-1.89;73.67;96786.09;1284790;23;20437;-67
2021/03/07 01:44:52;;;;;;;9.83;6.57;;;;;;;-1.88;73.36;96784.28;1285336;23;20008;-67
2021/03/07 01:45:23;;;;;;;11.03;6.70;;;;;;;-1.84;73.59;96785.56;1285211;23;19993;-66
2021/03/07 01:45:54;;;;;;;10.88;6.75;;;;;;;-1.85;73.91;96778.69;1285460;23;20031;-67
2021/03/07 01:46:24;;;;;;;11.07;7.33;;;;;;;-1.84;73.54;96780.34;1285266;23;20050;-67
2021/03/07 01:46:55;;;;;;;11.63;7.20;;;;;;;-1.89;73.87;96780.03;1285316;23;20080;-67
2021/03/07 01:47:34;;;;;;;10.73;6.67;;;;;;;-1.88;74.19;96781.66;1284795;23;19993;-67
2021/03/07 01:48:06;;;;;;;11.70;7.15;;;;;;;-1.86;73.64;96777.88;1283640;23;20307;-66
2021/03/07 01:48:37;;;;;;;11.73;6.93;;;;;;;-1.84;73.22;96775.91;1284837;23;20043;-67
2021/03/07 01:49:07;;;;;;;11.17;6.60;;;;;;;-1.84;73.87;96782.94;1278704;23;20001;-67
2021/03/07 01:49:38;;;;;;;11.27;6.43;;;;;;;-1.85;73.77;96773.44;1279262;23;20005;-66
2021/03/07 01:50:08;;;;;;;16.03;7.67;;;;;;;-1.80;73.87;96778.97;1272632;23;20308;-67
2021/03/07 01:50:41;;;;;;;13.40;7.53;;;;;;;-1.79;73.80;96777.16;1278741;23;20442;-67
2021/03/07 01:51:11;;;;;;;11.90;6.60;;;;;;;-1.84;74.34;96772.47;1284908;23;19997;-67
2021/03/07 01:51:41;;;;;;;10.97;6.87;;;;;;;-1.84;73.57;96772.47;1279199;23;19997;-67
2021/03/07 01:52:12;;;;;;;11.87;7.33;;;;;;;-1.89;73.81;96774.78;1278589;23;19993;-67
2021/03/07 01:52:42;;;;;;;14.57;7.17;;;;;;;-1.88;73.64;96776.41;1272487;23;20048;-67
2021/03/07 01:53:13;;;;;;;12.73;7.37;;;;;;;-1.88;73.96;96772.00;1272621;23;20075;-67
2021/03/07 01:53:44;;;;;;;11.38;7.07;;;;;;;-1.86;73.26;96769.19;1278684;23;20003;-67
2021/03/07 01:54:14;;;;;;;13.13;7.33;;;;;;;-1.87;73.11;96770.19;1277867;23;20435;-67
2021/03/07 01:54:44;;;;;;;10.33;6.93;;;;;;;-1.98;73.34;96770.59;1278560;23;20004;-67
2021/03/07 01:55:16;;;;;;;9.70;6.67;;;;;;;-2.00;73.81;96770.72;1278342;23;20013;-67
2021/03/07 01:55:46;;;;;;;11.18;7.00;;;;;;;-2.03;74.07;96773.72;1278829;23;20008;-67
2021/03/07 01:56:17;;;;;;;10.77;6.93;;;;;;;-2.09;74.30;96766.53;1284545;23;20445;-67
2021/03/07 01:56:48;;;;;;;11.48;7.32;;;;;;;-2.06;73.93;96763.56;1284633;23;20000;-66
2021/03/07 01:57:19;;;;;;;10.77;6.87;;;;;;;-2.00;74.06;96769.91;1284639;23;20001;-67
2021/03/07 01:58:18;;;;;;;11.07;7.03;;;;;;;-2.00;74.07;96765.50;1278148;23;19993;-67
2021/03/07 01:58:48;;;;;;;11.32;7.30;;;;;;;-1.93;73.67;96768.25;1267513;23;20099;-67
2021/03/07 01:59:19;;;;;;;15.10;6.83;;;;;;;-1.94;73.04;96770.06;1278313;23;20522;-67
2021/03/07 01:59:50;;;;;;;12.30;6.80;;;;;;;-1.93;73.21;96763.03;1284443;23;19992;-67
2021/03/07 02:00:21;;;;;;;12.77;7.90;;;;;;;-1.94;73.10;96754.34;1278416;23;19997;-66
2021/03/07 02:00:51;;;;;;;12.73;7.23;;;;;;;-1.92;73.35;96756.78;1278734;23;20080;-67
2021/03/07 02:01:22;;;;;;;11.37;7.30;;;;;;;-1.93;73.27;96757.78;1284561;23;20064;-66
2021/03/07 02:01:52;;;;;;;11.67;7.50;;;;;;;-1.95;73.10;96754.50;1284652;23;20008;-67
2021/03/07 02:02:22;;;;;;;10.30;7.20;;;;;;;-1.92;73.43;96762.84;1272215;23;20412;-67
2021/03/07 02:02:53;;;;;;;11.93;7.30;;;;;;;-1.96;73.71;96758.94;1266066;23;19997;-67
2021/03/07 02:03:24;;;;;;;10.63;7.13;;;;;;;-1.93;73.29;96753.34;1260133;23;19999;-67
2021/03/07 02:03:54;;;;;;;13.10;6.87;;;;;;;-1.97;72.82;96751.25;1254467;23;20069;-67
2021/03/07 02:04:24;;;;;;;11.37;7.03;;;;;;;-2.02;73.25;96757.00;1272397;23;20005;-67
2021/03/07 02:04:55;;;;;;;10.10;6.60;;;;;;;-2.03;72.53;96757.19;1278547;23;20052;-67
2021/03/07 02:05:25;;;;;;;10.20;6.90;;;;;;;-2.05;72.92;96754.72;1284461;23;20047;-67
2021/03/07 02:05:57;;;;;;;10.10;6.83;;;;;;;-2.05;72.34;96754.72;1290731;23;20114;-67
2021/03/07 02:06:27;;;;;;;13.48;7.15;;;;;;;-2.02;72.28;96751.75;1290888;23;20337;-67
2021/03/07 02:06:58;;;;;;;10.67;6.93;;;;;;;-1.99;72.57;96748.00;1290571;23;19992;-67
2021/03/07 02:07:28;;;;;;;11.60;7.03;;;;;;;-2.01;72.29;96750.78;1284889;23;19997;-67
2021/03/07 02:07:59;;;;;;;9.43;6.80;;;;;;;-1.98;72.64;96749.63;1285000;23;20131;-67
2021/03/07 02:08:30;;;;;;;10.43;6.45;;;;;;;-1.99;72.74;96742.75;1284399;23;19997;-67
2021/03/07 02:09:00;;;;;;;11.53;6.67;;;;;;;-1.99;72.99;96745.38;1284578;23;20438;-67
2021/03/07 02:09:30;;;;;;;12.43;7.00;;;;;;;-2.00;72.40;96746.34;1278394;23;20075;-67
2021/03/07 02:10:02;;;;;;;11.30;6.70;;;;;;;-1.97;72.99;96751.25;1272312;23;20013;-67
2021/03/07 02:10:37;;;;;;;11.80;7.05;;;;;;;-1.93;73.09;96749.91;1271603;23;20028;-67
2021/03/07 02:11:08;;;;;;;11.00;6.78;;;;;;;-1.93;73.07;96748.13;1266975;23;20028;-67
2021/03/07 02:11:38;;;;;;;14.03;7.00;;;;;;;-1.97;74.07;96746.81;1273095;23;20004;-68
2021/03/07 02:12:09;;;;;;;14.13;6.77;;;;;;;-1.94;74.03;96746.50;1271946;23;20005;-67
2021/03/07 02:12:39;;;;;;;11.40;6.60;;;;;;;-1.93;73.94;96745.50;1272937;23;20017;-67
2021/03/07 02:13:22;;;;;;;13.33;8.43;;;;;;;-1.91;73.90;96750.56;1278233;23;20004;-68
2021/03/07 02:13:52;;;;;;;11.65;7.25;;;;;;;-1.93;74.34;96742.06;1284350;23;20004;-68
2021/03/07 02:14:23;;;;;;;11.87;6.83;;;;;;;-1.93;74.46;96737.63;1274858;23;20009;-68
2021/03/07 02:14:53;;;;;;;10.90;7.03;;;;;;;-1.95;73.56;96742.22;1272191;23;20004;-68
2021/03/07 02:15:25;;;;;;;12.23;7.33;;;;;;;-1.96;73.28;96734.53;1272310;23;20103;-68
2021/03/07 02:15:55;;;;;;;12.23;6.85;;;;;;;-1.97;74.14;96738.16;1260196;23;20428;-68
2021/03/07 02:16:25;;;;;;;12.27;7.83;;;;;;;-1.98;74.36;96742.56;1260218;23;20006;-68
2021/03/07 02:16:57;;;;;;;11.83;7.30;;;;;;;-1.99;74.28;96748.00;1254087;23;19995;-68
2021/03/07 02:17:27;;;;;;;11.88;7.88;;;;;;;-2.03;74.76;96733.59;1254508;23;20002;-68
2021/03/07 02:17:57;;;;;;;14.03;7.73;;;;;;;-2.06;74.75;96744.41;1260268;23;20424;-68
2021/03/07 02:18:28;;;;;;;12.87;7.83;;;;;;;-2.11;75.13;96740.50;1266781;23;20005;-68
2021/03/07 02:18:59;;;;;;;12.40;7.37;;;;;;;-2.14;74.93;96743.50;1272232;23;20040;-68
2021/03/07 02:19:33;;;;;;;14.70;8.20;;;;;;;-2.14;74.76;96740.06;1266024;23;20044;-68
2021/03/07 02:20:05;;;;;;;13.23;7.57;;;;;;;-2.14;75.40;96740.88;1266121;23;20125;-68
2021/03/07 02:20:38;;;;;;;12.40;7.63;;;;;;;-2.16;74.96;96739.38;1261238;23;20012;-68
2021/03/07 02:21:15;;;;;;;12.57;7.72;;;;;;;-2.19;74.74;96735.31;1264941;23;20062;-68
2021/03/07 02:21:46;;;;;;;11.48;6.38;;;;;;;-2.21;74.46;96734.66;1278359;23;19997;-67
2021/03/07 02:22:20;;;;;;;10.55;6.82;;;;;;;-2.22;74.57;96742.69;1280341;23;20009;-68
2021/03/07 02:23:27;;;;;;;11.90;6.72;;;;;;;-2.22;74.21;96746.13;1280734;23;20330;-68
2021/03/07 02:24:05;;;;;;;12.93;7.55;;;;;;;-2.23;74.89;96741.06;1253756;23;20006;-68
2021/03/07 02:24:35;;;;;;;11.93;6.88;;;;;;;-2.26;74.70;96736.97;1280992;23;20000;-67